sensor_id;sensor_type;location;lat;lon;timestamp;temperature;humidity
51091;DHT22;37136;43.614;3.908;2022-07-23T00:01:34;27.90;67.50
51091;DHT22;37136;43.614;3.908;2022-07-23T00:04:00;27.90;62.70
51091;DHT22;37136;43.614;3.908;2022-07-23T00:06:26;28.00;62.90
51091;DHT22;37136;43.614;3.908;2022-07-23T00:08:52;28.00;56.30
51091;DHT22;37136;43.614;3.908;2022-07-23T00:11:17;28.40;99.90
51091;DHT22;37136;43.614;3.908;2022-07-23T00:13:43;28.50;20.50
51091;DHT22;37136;43.614;3.908;2022-07-23T00:16:09;28.50;99.90
51091;DHT22;37136;43.614;3.908;2022-07-23T00:18:35;28.40;92.10
51091;DHT22;37136;43.614;3.908;2022-07-23T00:21:01;28.60;91.70
51091;DHT22;37136;43.614;3.908;2022-07-23T00:23:27;28.70;55.60
51091;DHT22;37136;43.614;3.908;2022-07-23T00:25:54;28.60;65.10
51091;DHT22;37136;43.614;3.908;2022-07-23T00:28:20;28.60;52.40
51091;DHT22;37136;43.614;3.908;2022-07-23T00:30:46;28.70;62.70
51091;DHT22;37136;43.614;3.908;2022-07-23T00:33:12;28.70;16.50
51091;DHT22;37136;43.614;3.908;2022-07-23T00:35:39;28.50;26.10
51091;DHT22;37136;43.614;3.908;2022-07-23T00:38:07;28.70;12.60
51091;DHT22;37136;43.614;3.908;2022-07-23T00:40:34;28.70;41.70
51091;DHT22;37136;43.614;3.908;2022-07-23T00:43:00;28.80;52.10
51091;DHT22;37136;43.614;3.908;2022-07-23T00:45:26;28.80;15.30
51091;DHT22;37136;43.614;3.908;2022-07-23T00:47:52;28.80;14.90
51091;DHT22;37136;43.614;3.908;2022-07-23T00:50:18;28.50;1.00
51091;DHT22;37136;43.614;3.908;2022-07-23T00:52:45;28.10;6.40
51091;DHT22;37136;43.614;3.908;2022-07-23T00:55:12;28.20;24.60
51091;DHT22;37136;43.614;3.908;2022-07-23T00:57:39;28.10;71.00
51091;DHT22;37136;43.614;3.908;2022-07-23T01:00:06;28.10;17.20
51091;DHT22;37136;43.614;3.908;2022-07-23T01:02:33;27.80;43.70
51091;DHT22;37136;43.614;3.908;2022-07-23T01:04:59;27.80;22.70
51091;DHT22;37136;43.614;3.908;2022-07-23T01:07:26;27.80;17.10
51091;DHT22;37136;43.614;3.908;2022-07-23T01:09:52;27.80;16.30
51091;DHT22;37136;43.614;3.908;2022-07-23T01:12:18;27.70;15.20
51091;DHT22;37136;43.614;3.908;2022-07-23T01:14:44;27.80;15.40
51091;DHT22;37136;43.614;3.908;2022-07-23T01:17:10;27.80;10.80
51091;DHT22;37136;43.614;3.908;2022-07-23T01:19:35;27.80;14.00
51091;DHT22;37136;43.614;3.908;2022-07-23T01:22:02;27.70;25.70
51091;DHT22;37136;43.614;3.908;2022-07-23T01:24:28;27.70;43.60
51091;DHT22;37136;43.614;3.908;2022-07-23T01:26:54;27.70;17.10
51091;DHT22;37136;43.614;3.908;2022-07-23T01:29:20;27.80;14.90
51091;DHT22;37136;43.614;3.908;2022-07-23T01:31:47;27.60;10.90
51091;DHT22;37136;43.614;3.908;2022-07-23T01:34:13;27.60;11.70
51091;DHT22;37136;43.614;3.908;2022-07-23T01:36:38;27.50;14.60
51091;DHT22;37136;43.614;3.908;2022-07-23T01:39:06;27.50;6.80
51091;DHT22;37136;43.614;3.908;2022-07-23T01:41:33;27.50;5.40
51091;DHT22;37136;43.614;3.908;2022-07-23T01:43:59;27.40;10.60
51091;DHT22;37136;43.614;3.908;2022-07-23T01:46:24;27.40;12.30
51091;DHT22;37136;43.614;3.908;2022-07-23T01:48:50;27.30;15.80
51091;DHT22;37136;43.614;3.908;2022-07-23T01:51:16;27.40;17.50
51091;DHT22;37136;43.614;3.908;2022-07-23T01:53:42;27.40;27.00
51091;DHT22;37136;43.614;3.908;2022-07-23T01:56:07;27.50;22.10
51091;DHT22;37136;43.614;3.908;2022-07-23T01:58:33;27.80;59.30
51091;DHT22;37136;43.614;3.908;2022-07-23T02:00:59;27.90;47.60
51091;DHT22;37136;43.614;3.908;2022-07-23T02:03:25;28.00;20.90
51091;DHT22;37136;43.614;3.908;2022-07-23T02:05:51;27.90;13.30
51091;DHT22;37136;43.614;3.908;2022-07-23T02:08:18;27.90;50.10
51091;DHT22;37136;43.614;3.908;2022-07-23T02:10:44;28.10;30.00
51091;DHT22;37136;43.614;3.908;2022-07-23T02:13:10;28.00;20.50
51091;DHT22;37136;43.614;3.908;2022-07-23T02:15:36;28.00;19.00
51091;DHT22;37136;43.614;3.908;2022-07-23T02:18:02;27.90;12.50
51091;DHT22;37136;43.614;3.908;2022-07-23T02:20:28;27.60;40.00
51091;DHT22;37136;43.614;3.908;2022-07-23T02:22:54;27.20;50.40
51091;DHT22;37136;43.614;3.908;2022-07-23T02:25:19;27.30;98.20
51091;DHT22;37136;43.614;3.908;2022-07-23T02:27:45;27.50;87.70
51091;DHT22;37136;43.614;3.908;2022-07-23T02:30:11;27.80;64.90
51091;DHT22;37136;43.614;3.908;2022-07-23T02:32:37;27.80;54.50
51091;DHT22;37136;43.614;3.908;2022-07-23T02:35:06;27.70;51.60
51091;DHT22;37136;43.614;3.908;2022-07-23T02:37:32;27.80;49.60
51091;DHT22;37136;43.614;3.908;2022-07-23T02:39:58;27.50;46.30
51091;DHT22;37136;43.614;3.908;2022-07-23T02:42:24;27.10;68.30
51091;DHT22;37136;43.614;3.908;2022-07-23T02:44:51;27.30;89.00
51091;DHT22;37136;43.614;3.908;2022-07-23T02:47:17;27.10;83.50
51091;DHT22;37136;43.614;3.908;2022-07-23T02:49:43;27.10;94.60
51091;DHT22;37136;43.614;3.908;2022-07-23T02:52:08;27.50;88.10
51091;DHT22;37136;43.614;3.908;2022-07-23T02:54:36;27.50;65.10
51091;DHT22;37136;43.614;3.908;2022-07-23T02:57:03;27.10;60.00
51091;DHT22;37136;43.614;3.908;2022-07-23T02:59:29;26.90;66.20
51091;DHT22;37136;43.614;3.908;2022-07-23T03:01:54;26.80;90.50
51091;DHT22;37136;43.614;3.908;2022-07-23T03:04:20;26.60;84.90
51091;DHT22;37136;43.614;3.908;2022-07-23T03:06:46;26.60;85.70
51091;DHT22;37136;43.614;3.908;2022-07-23T03:09:12;26.60;88.50
51091;DHT22;37136;43.614;3.908;2022-07-23T03:11:37;26.60;74.90
51091;DHT22;37136;43.614;3.908;2022-07-23T03:14:03;26.60;81.90
51091;DHT22;37136;43.614;3.908;2022-07-23T03:16:29;26.80;69.30
51091;DHT22;37136;43.614;3.908;2022-07-23T03:18:54;26.70;58.20
51091;DHT22;37136;43.614;3.908;2022-07-23T03:21:20;26.60;67.00
51091;DHT22;37136;43.614;3.908;2022-07-23T03:23:46;26.50;61.90
51091;DHT22;37136;43.614;3.908;2022-07-23T03:26:12;26.50;63.90
51091;DHT22;37136;43.614;3.908;2022-07-23T03:28:37;26.50;70.00
51091;DHT22;37136;43.614;3.908;2022-07-23T03:31:03;26.70;41.60
51091;DHT22;37136;43.614;3.908;2022-07-23T03:33:29;26.90;52.40
51091;DHT22;37136;43.614;3.908;2022-07-23T03:35:54;26.70;45.40
51091;DHT22;37136;43.614;3.908;2022-07-23T03:38:20;26.50;49.10
51091;DHT22;37136;43.614;3.908;2022-07-23T03:40:46;26.40;56.90
51091;DHT22;37136;43.614;3.908;2022-07-23T03:43:11;26.50;75.80
51091;DHT22;37136;43.614;3.908;2022-07-23T03:45:37;26.90;92.50
51091;DHT22;37136;43.614;3.908;2022-07-23T03:48:03;26.70;38.80
51091;DHT22;37136;43.614;3.908;2022-07-23T03:50:29;26.50;64.90
51091;DHT22;37136;43.614;3.908;2022-07-23T03:52:54;26.90;64.30
51091;DHT22;37136;43.614;3.908;2022-07-23T03:55:20;27.20;23.40
51091;DHT22;37136;43.614;3.908;2022-07-23T03:57:46;26.80;29.20
51091;DHT22;37136;43.614;3.908;2022-07-23T04:00:12;27.20;71.60
51091;DHT22;37136;43.614;3.908;2022-07-23T04:02:39;27.40;27.00
51091;DHT22;37136;43.614;3.908;2022-07-23T04:05:06;27.50;17.10
51091;DHT22;37136;43.614;3.908;2022-07-23T04:07:32;27.70;18.00
51091;DHT22;37136;43.614;3.908;2022-07-23T04:09:57;27.60;2.80
51091;DHT22;37136;43.614;3.908;2022-07-23T04:12:24;27.20;10.20
51091;DHT22;37136;43.614;3.908;2022-07-23T04:14:50;27.30;19.40
51091;DHT22;37136;43.614;3.908;2022-07-23T04:17:15;27.60;19.00
51091;DHT22;37136;43.614;3.908;2022-07-23T04:19:42;27.70;8.00
51091;DHT22;37136;43.614;3.908;2022-07-23T04:22:10;27.70;1.00
51091;DHT22;37136;43.614;3.908;2022-07-23T04:24:36;27.30;7.70
51091;DHT22;37136;43.614;3.908;2022-07-23T04:27:02;27.50;26.70
51091;DHT22;37136;43.614;3.908;2022-07-23T04:29:28;27.70;11.50
51091;DHT22;37136;43.614;3.908;2022-07-23T04:31:54;27.70;8.70
51091;DHT22;37136;43.614;3.908;2022-07-23T04:34:20;27.80;1.70
51091;DHT22;37136;43.614;3.908;2022-07-23T04:36:46;27.80;1.00
51091;DHT22;37136;43.614;3.908;2022-07-23T04:39:12;26.90;7.90
51091;DHT22;37136;43.614;3.908;2022-07-23T04:41:38;26.50;53.40
51091;DHT22;37136;43.614;3.908;2022-07-23T04:44:04;26.40;55.50
51091;DHT22;37136;43.614;3.908;2022-07-23T04:46:29;26.50;52.30
51091;DHT22;37136;43.614;3.908;2022-07-23T04:48:55;26.60;45.60
51091;DHT22;37136;43.614;3.908;2022-07-23T04:51:21;26.40;65.60
51091;DHT22;37136;43.614;3.908;2022-07-23T04:53:46;26.50;64.00
51091;DHT22;37136;43.614;3.908;2022-07-23T04:56:12;26.60;43.30
51091;DHT22;37136;43.614;3.908;2022-07-23T04:58:38;26.50;42.40
51091;DHT22;37136;43.614;3.908;2022-07-23T05:01:04;26.60;35.00
51091;DHT22;37136;43.614;3.908;2022-07-23T05:03:30;26.60;37.10
51091;DHT22;37136;43.614;3.908;2022-07-23T05:05:55;26.40;34.70
51091;DHT22;37136;43.614;3.908;2022-07-23T05:08:21;26.30;45.00
51091;DHT22;37136;43.614;3.908;2022-07-23T05:10:47;26.30;54.70
51091;DHT22;37136;43.614;3.908;2022-07-23T05:13:16;26.20;52.30
51091;DHT22;37136;43.614;3.908;2022-07-23T05:15:43;26.20;73.50
51091;DHT22;37136;43.614;3.908;2022-07-23T05:18:09;26.30;51.20
51091;DHT22;37136;43.614;3.908;2022-07-23T05:20:35;26.30;49.30
51091;DHT22;37136;43.614;3.908;2022-07-23T05:23:00;26.30;56.10
51091;DHT22;37136;43.614;3.908;2022-07-23T05:25:26;26.20;40.80
51091;DHT22;37136;43.614;3.908;2022-07-23T05:27:52;26.00;60.00
51091;DHT22;37136;43.614;3.908;2022-07-23T05:30:18;26.10;55.50
51091;DHT22;37136;43.614;3.908;2022-07-23T05:32:44;26.00;59.90
51091;DHT22;37136;43.614;3.908;2022-07-23T05:35:10;26.00;62.10
51091;DHT22;37136;43.614;3.908;2022-07-23T05:37:35;26.30;50.00
51091;DHT22;37136;43.614;3.908;2022-07-23T05:40:06;26.10;53.10
51091;DHT22;37136;43.614;3.908;2022-07-23T05:42:36;26.00;55.70
51091;DHT22;37136;43.614;3.908;2022-07-23T05:45:03;25.90;45.10
51091;DHT22;37136;43.614;3.908;2022-07-23T05:47:39;25.80;56.00
51091;DHT22;37136;43.614;3.908;2022-07-23T05:50:05;25.80;61.00
51091;DHT22;37136;43.614;3.908;2022-07-23T05:52:31;25.80;62.20
51091;DHT22;37136;43.614;3.908;2022-07-23T05:54:57;25.80;58.20
51091;DHT22;37136;43.614;3.908;2022-07-23T05:57:22;25.90;53.50
51091;DHT22;37136;43.614;3.908;2022-07-23T05:59:48;26.10;46.70
51091;DHT22;37136;43.614;3.908;2022-07-23T06:02:14;26.10;36.50
51091;DHT22;37136;43.614;3.908;2022-07-23T06:04:39;26.20;29.00
51091;DHT22;37136;43.614;3.908;2022-07-23T06:07:05;26.30;20.80
51091;DHT22;37136;43.614;3.908;2022-07-23T06:09:31;26.30;25.10
51091;DHT22;37136;43.614;3.908;2022-07-23T06:11:56;26.30;26.10
51091;DHT22;37136;43.614;3.908;2022-07-23T06:14:22;26.30;23.00
51091;DHT22;37136;43.614;3.908;2022-07-23T06:16:48;26.30;32.30
51091;DHT22;37136;43.614;3.908;2022-07-23T06:19:14;26.40;27.00
51091;DHT22;37136;43.614;3.908;2022-07-23T06:21:39;26.60;16.90
51091;DHT22;37136;43.614;3.908;2022-07-23T06:24:05;26.70;8.60
51091;DHT22;37136;43.614;3.908;2022-07-23T06:26:31;26.80;17.00
51091;DHT22;37136;43.614;3.908;2022-07-23T06:28:57;26.90;1.00
51091;DHT22;37136;43.614;3.908;2022-07-23T06:31:23;27.00;1.00
51091;DHT22;37136;43.614;3.908;2022-07-23T06:33:48;27.10;1.00
51091;DHT22;37136;43.614;3.908;2022-07-23T06:36:15;27.10;1.00
51091;DHT22;37136;43.614;3.908;2022-07-23T06:38:41;27.20;1.00
51091;DHT22;37136;43.614;3.908;2022-07-23T06:41:07;27.30;1.00
51091;DHT22;37136;43.614;3.908;2022-07-23T06:43:32;27.40;1.00
51091;DHT22;37136;43.614;3.908;2022-07-23T06:45:58;27.50;1.00
51091;DHT22;37136;43.614;3.908;2022-07-23T06:48:24;27.70;1.00
51091;DHT22;37136;43.614;3.908;2022-07-23T06:50:50;27.70;1.00
51091;DHT22;37136;43.614;3.908;2022-07-23T06:53:18;27.80;1.00
51091;DHT22;37136;43.614;3.908;2022-07-23T06:55:43;27.70;1.00
51091;DHT22;37136;43.614;3.908;2022-07-23T06:58:09;27.80;1.00
51091;DHT22;37136;43.614;3.908;2022-07-23T07:00:36;28.00;1.00
51091;DHT22;37136;43.614;3.908;2022-07-23T07:03:02;28.60;1.00
51091;DHT22;37136;43.614;3.908;2022-07-23T07:05:28;28.50;1.00
51091;DHT22;37136;43.614;3.908;2022-07-23T07:07:54;28.40;1.00
51091;DHT22;37136;43.614;3.908;2022-07-23T07:10:20;28.60;1.00
51091;DHT22;37136;43.614;3.908;2022-07-23T07:12:46;28.30;1.00
51091;DHT22;37136;43.614;3.908;2022-07-23T07:15:12;28.10;1.00
51091;DHT22;37136;43.614;3.908;2022-07-23T07:17:38;28.20;1.00
51091;DHT22;37136;43.614;3.908;2022-07-23T07:20:05;28.50;1.00
51091;DHT22;37136;43.614;3.908;2022-07-23T07:22:31;28.60;1.00
51091;DHT22;37136;43.614;3.908;2022-07-23T07:24:57;28.50;1.00
51091;DHT22;37136;43.614;3.908;2022-07-23T07:27:22;28.30;1.00
51091;DHT22;37136;43.614;3.908;2022-07-23T07:29:48;28.20;1.00
51091;DHT22;37136;43.614;3.908;2022-07-23T07:32:14;28.10;1.00
51091;DHT22;37136;43.614;3.908;2022-07-23T07:34:40;28.30;1.00
51091;DHT22;37136;43.614;3.908;2022-07-23T07:37:05;28.40;1.00
51091;DHT22;37136;43.614;3.908;2022-07-23T07:39:31;28.70;1.00
51091;DHT22;37136;43.614;3.908;2022-07-23T07:41:57;28.90;1.00
51091;DHT22;37136;43.614;3.908;2022-07-23T07:44:23;29.00;1.00
51091;DHT22;37136;43.614;3.908;2022-07-23T07:46:48;29.20;1.00
51091;DHT22;37136;43.614;3.908;2022-07-23T07:49:14;29.50;1.00
51091;DHT22;37136;43.614;3.908;2022-07-23T07:51:42;29.10;1.00
51091;DHT22;37136;43.614;3.908;2022-07-23T07:54:08;29.30;1.00
51091;DHT22;37136;43.614;3.908;2022-07-23T07:56:34;29.30;1.00
51091;DHT22;37136;43.614;3.908;2022-07-23T07:58:59;29.90;1.00
51091;DHT22;37136;43.614;3.908;2022-07-23T08:01:26;29.80;1.00
51091;DHT22;37136;43.614;3.908;2022-07-23T08:03:52;30.10;1.00
51091;DHT22;37136;43.614;3.908;2022-07-23T08:06:18;29.70;1.00
51091;DHT22;37136;43.614;3.908;2022-07-23T08:08:43;29.30;1.00
51091;DHT22;37136;43.614;3.908;2022-07-23T08:11:09;29.50;1.00
51091;DHT22;37136;43.614;3.908;2022-07-23T08:13:35;29.60;1.00
51091;DHT22;37136;43.614;3.908;2022-07-23T08:16:01;29.60;1.00
51091;DHT22;37136;43.614;3.908;2022-07-23T08:18:27;29.60;1.00
51091;DHT22;37136;43.614;3.908;2022-07-23T08:20:55;29.50;1.00
51091;DHT22;37136;43.614;3.908;2022-07-23T08:23:21;29.20;1.00
51091;DHT22;37136;43.614;3.908;2022-07-23T08:25:47;29.50;1.00
51091;DHT22;37136;43.614;3.908;2022-07-23T08:28:14;30.00;1.00
51091;DHT22;37136;43.614;3.908;2022-07-23T08:30:42;30.00;1.00
51091;DHT22;37136;43.614;3.908;2022-07-23T08:33:15;29.80;1.00
51091;DHT22;37136;43.614;3.908;2022-07-23T08:35:49;29.60;1.00
51091;DHT22;37136;43.614;3.908;2022-07-23T08:38:17;29.60;1.00
51091;DHT22;37136;43.614;3.908;2022-07-23T08:40:47;29.60;1.00
51091;DHT22;37136;43.614;3.908;2022-07-23T08:43:19;29.70;1.00
51091;DHT22;37136;43.614;3.908;2022-07-23T08:45:47;30.10;1.00
51091;DHT22;37136;43.614;3.908;2022-07-23T08:48:25;30.30;99.90
51091;DHT22;37136;43.614;3.908;2022-07-23T08:50:56;30.10;99.90
51091;DHT22;37136;43.614;3.908;2022-07-23T08:53:23;30.00;99.90
51091;DHT22;37136;43.614;3.908;2022-07-23T08:55:51;30.60;99.90
51091;DHT22;37136;43.614;3.908;2022-07-23T08:58:17;30.90;99.90
51091;DHT22;37136;43.614;3.908;2022-07-23T09:00:44;30.80;99.90
51091;DHT22;37136;43.614;3.908;2022-07-23T09:03:19;30.50;99.90
51091;DHT22;37136;43.614;3.908;2022-07-23T09:05:46;30.50;99.90
51091;DHT22;37136;43.614;3.908;2022-07-23T09:08:13;30.70;99.90
51091;DHT22;37136;43.614;3.908;2022-07-23T09:13:28;30.90;99.90
51091;DHT22;37136;43.614;3.908;2022-07-23T09:15:59;31.10;99.90
51091;DHT22;37136;43.614;3.908;2022-07-23T09:18:46;31.30;99.90
51091;DHT22;37136;43.614;3.908;2022-07-23T09:21:35;31.30;99.90
51091;DHT22;37136;43.614;3.908;2022-07-23T09:24:08;31.50;99.90
51091;DHT22;37136;43.614;3.908;2022-07-23T09:26:39;31.30;99.90
51091;DHT22;37136;43.614;3.908;2022-07-23T09:31:56;31.10;99.90
51091;DHT22;37136;43.614;3.908;2022-07-23T09:36:54;31.10;99.90
51091;DHT22;37136;43.614;3.908;2022-07-23T09:39:30;31.00;99.90
51091;DHT22;37136;43.614;3.908;2022-07-23T09:41:56;30.90;99.90
51091;DHT22;37136;43.614;3.908;2022-07-23T09:44:22;31.40;99.90
51091;DHT22;37136;43.614;3.908;2022-07-23T09:46:50;31.50;99.90
51091;DHT22;37136;43.614;3.908;2022-07-23T09:49:21;31.60;99.90
51091;DHT22;37136;43.614;3.908;2022-07-23T09:51:54;31.70;99.90
51091;DHT22;37136;43.614;3.908;2022-07-23T09:54:35;31.90;99.90
51091;DHT22;37136;43.614;3.908;2022-07-23T09:57:07;32.00;99.90
51091;DHT22;37136;43.614;3.908;2022-07-23T09:59:37;32.20;99.90
51091;DHT22;37136;43.614;3.908;2022-07-23T10:02:03;32.20;99.90
51091;DHT22;37136;43.614;3.908;2022-07-23T10:04:31;32.60;99.90
51091;DHT22;37136;43.614;3.908;2022-07-23T10:07:03;32.20;99.90
51091;DHT22;37136;43.614;3.908;2022-07-23T10:09:35;32.00;99.90
51091;DHT22;37136;43.614;3.908;2022-07-23T10:12:09;31.80;99.90
51091;DHT22;37136;43.614;3.908;2022-07-23T10:14:53;31.70;99.90
51091;DHT22;37136;43.614;3.908;2022-07-23T10:17:19;31.50;99.90
51091;DHT22;37136;43.614;3.908;2022-07-23T10:19:45;31.50;99.90
51091;DHT22;37136;43.614;3.908;2022-07-23T10:22:25;31.70;99.90
51091;DHT22;37136;43.614;3.908;2022-07-23T10:38:25;32.30;99.90
51091;DHT22;37136;43.614;3.908;2022-07-23T10:41:05;32.70;99.90
51091;DHT22;37136;43.614;3.908;2022-07-23T10:43:31;33.00;99.90
51091;DHT22;37136;43.614;3.908;2022-07-23T10:46:21;33.00;99.90
51091;DHT22;37136;43.614;3.908;2022-07-23T10:52:25;32.60;99.90
51091;DHT22;37136;43.614;3.908;2022-07-23T10:54:55;33.10;99.90
51091;DHT22;37136;43.614;3.908;2022-07-23T10:57:25;33.00;99.90
51091;DHT22;37136;43.614;3.908;2022-07-23T11:00:12;33.00;99.90
51091;DHT22;37136;43.614;3.908;2022-07-23T11:02:40;33.20;99.90
51091;DHT22;37136;43.614;3.908;2022-07-23T11:05:09;33.60;99.90
51091;DHT22;37136;43.614;3.908;2022-07-23T11:07:36;33.80;99.90
51091;DHT22;37136;43.614;3.908;2022-07-23T11:10:03;33.80;99.90
51091;DHT22;37136;43.614;3.908;2022-07-23T11:15:13;33.70;99.90
51091;DHT22;37136;43.614;3.908;2022-07-23T11:25:30;33.50;99.90
51091;DHT22;37136;43.614;3.908;2022-07-23T11:27:55;33.50;99.90
51091;DHT22;37136;43.614;3.908;2022-07-23T11:33:20;33.60;99.90
51091;DHT22;37136;43.614;3.908;2022-07-23T11:36:00;33.50;99.90
51091;DHT22;37136;43.614;3.908;2022-07-23T11:38:27;33.60;99.90
51091;DHT22;37136;43.614;3.908;2022-07-23T11:40:56;33.50;99.90
51091;DHT22;37136;43.614;3.908;2022-07-23T11:43:24;33.50;99.90
51091;DHT22;37136;43.614;3.908;2022-07-23T11:45:53;33.30;99.90
51091;DHT22;37136;43.614;3.908;2022-07-23T11:48:27;33.40;99.90
51091;DHT22;37136;43.614;3.908;2022-07-23T11:50:55;33.50;99.90
51091;DHT22;37136;43.614;3.908;2022-07-23T11:53:27;33.70;99.90
51091;DHT22;37136;43.614;3.908;2022-07-23T11:55:53;33.90;99.90
51091;DHT22;37136;43.614;3.908;2022-07-23T11:58:20;34.10;99.90
51091;DHT22;37136;43.614;3.908;2022-07-23T12:00:47;34.10;99.90
51091;DHT22;37136;43.614;3.908;2022-07-23T12:03:13;33.70;99.90
51091;DHT22;37136;43.614;3.908;2022-07-23T12:05:39;33.70;99.90
51091;DHT22;37136;43.614;3.908;2022-07-23T12:08:07;33.80;99.90
51091;DHT22;37136;43.614;3.908;2022-07-23T12:10:38;33.80;99.90
51091;DHT22;37136;43.614;3.908;2022-07-23T12:13:06;34.10;99.90
51091;DHT22;37136;43.614;3.908;2022-07-23T12:15:41;34.00;99.90
51091;DHT22;37136;43.614;3.908;2022-07-23T12:18:12;34.20;99.90
51091;DHT22;37136;43.614;3.908;2022-07-23T12:20:41;34.10;99.90
51091;DHT22;37136;43.614;3.908;2022-07-23T12:23:08;34.00;99.90
51091;DHT22;37136;43.614;3.908;2022-07-23T12:25:37;34.00;99.90
51091;DHT22;37136;43.614;3.908;2022-07-23T12:28:04;34.10;99.90
51091;DHT22;37136;43.614;3.908;2022-07-23T12:33:22;33.90;99.90
51091;DHT22;37136;43.614;3.908;2022-07-23T12:35:48;34.10;99.90
51091;DHT22;37136;43.614;3.908;2022-07-23T12:38:21;34.00;99.90
51091;DHT22;37136;43.614;3.908;2022-07-23T12:40:55;34.10;99.90
51091;DHT22;37136;43.614;3.908;2022-07-23T12:43:24;34.00;99.90
51091;DHT22;37136;43.614;3.908;2022-07-23T12:46:01;34.10;99.90
51091;DHT22;37136;43.614;3.908;2022-07-23T12:48:36;33.70;99.90
51091;DHT22;37136;43.614;3.908;2022-07-23T12:51:07;33.90;99.90
51091;DHT22;37136;43.614;3.908;2022-07-23T12:53:55;34.10;99.90
51091;DHT22;37136;43.614;3.908;2022-07-23T12:56:33;33.90;99.90
51091;DHT22;37136;43.614;3.908;2022-07-23T12:59:08;33.90;99.90
51091;DHT22;37136;43.614;3.908;2022-07-23T13:01:52;33.90;99.90
51091;DHT22;37136;43.614;3.908;2022-07-23T13:04:23;34.20;99.90
51091;DHT22;37136;43.614;3.908;2022-07-23T13:06:54;34.40;99.90
51091;DHT22;37136;43.614;3.908;2022-07-23T13:09:28;34.40;99.90
51091;DHT22;37136;43.614;3.908;2022-07-23T13:11:56;34.50;99.90
51091;DHT22;37136;43.614;3.908;2022-07-23T13:14:23;34.50;99.90
51091;DHT22;37136;43.614;3.908;2022-07-23T13:16:51;34.50;99.90
51091;DHT22;37136;43.614;3.908;2022-07-23T13:19:17;34.90;99.90
51091;DHT22;37136;43.614;3.908;2022-07-23T13:21:43;34.60;99.90
51091;DHT22;37136;43.614;3.908;2022-07-23T13:24:10;34.50;99.90
51091;DHT22;37136;43.614;3.908;2022-07-23T13:26:37;34.50;99.90
51091;DHT22;37136;43.614;3.908;2022-07-23T13:29:03;34.30;99.90
51091;DHT22;37136;43.614;3.908;2022-07-23T13:31:29;34.40;99.90
51091;DHT22;37136;43.614;3.908;2022-07-23T13:33:54;34.40;99.90
51091;DHT22;37136;43.614;3.908;2022-07-23T13:36:20;34.80;99.90
51091;DHT22;37136;43.614;3.908;2022-07-23T13:38:46;34.50;99.90
51091;DHT22;37136;43.614;3.908;2022-07-23T13:41:12;34.60;99.90
51091;DHT22;37136;43.614;3.908;2022-07-23T13:43:37;34.50;99.90
51091;DHT22;37136;43.614;3.908;2022-07-23T13:46:03;34.60;99.90
51091;DHT22;37136;43.614;3.908;2022-07-23T13:48:29;34.60;99.90
51091;DHT22;37136;43.614;3.908;2022-07-23T13:50:55;34.50;99.90
51091;DHT22;37136;43.614;3.908;2022-07-23T13:53:23;34.70;99.90
51091;DHT22;37136;43.614;3.908;2022-07-23T13:55:51;34.80;99.90
51091;DHT22;37136;43.614;3.908;2022-07-23T13:58:17;34.80;99.90
51091;DHT22;37136;43.614;3.908;2022-07-23T14:00:48;34.50;99.90
51091;DHT22;37136;43.614;3.908;2022-07-23T14:03:14;34.40;99.90
51091;DHT22;37136;43.614;3.908;2022-07-23T14:05:40;34.40;99.90
51091;DHT22;37136;43.614;3.908;2022-07-23T14:08:07;34.30;99.90
51091;DHT22;37136;43.614;3.908;2022-07-23T14:10:33;34.10;99.90
51091;DHT22;37136;43.614;3.908;2022-07-23T14:12:58;34.10;99.90
51091;DHT22;37136;43.614;3.908;2022-07-23T14:15:26;34.20;99.90
51091;DHT22;37136;43.614;3.908;2022-07-23T14:17:53;34.50;99.90
51091;DHT22;37136;43.614;3.908;2022-07-23T14:20:19;34.30;99.90
51091;DHT22;37136;43.614;3.908;2022-07-23T14:22:45;34.10;99.90
51091;DHT22;37136;43.614;3.908;2022-07-23T14:25:12;34.10;99.90
51091;DHT22;37136;43.614;3.908;2022-07-23T14:27:38;34.20;99.90
51091;DHT22;37136;43.614;3.908;2022-07-23T14:30:06;34.10;99.90
51091;DHT22;37136;43.614;3.908;2022-07-23T14:32:32;34.00;99.90
51091;DHT22;37136;43.614;3.908;2022-07-23T14:34:58;33.90;99.90
51091;DHT22;37136;43.614;3.908;2022-07-23T14:37:24;34.10;99.90
51091;DHT22;37136;43.614;3.908;2022-07-23T14:39:51;34.20;99.90
51091;DHT22;37136;43.614;3.908;2022-07-23T14:42:17;34.20;99.90
51091;DHT22;37136;43.614;3.908;2022-07-23T14:44:44;34.20;99.90
51091;DHT22;37136;43.614;3.908;2022-07-23T14:47:10;34.20;99.90
51091;DHT22;37136;43.614;3.908;2022-07-23T14:49:36;34.20;99.90
51091;DHT22;37136;43.614;3.908;2022-07-23T14:52:03;34.20;99.90
51091;DHT22;37136;43.614;3.908;2022-07-23T14:54:29;34.30;99.90
51091;DHT22;37136;43.614;3.908;2022-07-23T14:56:58;34.50;99.90
51091;DHT22;37136;43.614;3.908;2022-07-23T14:59:24;34.60;99.90
51091;DHT22;37136;43.614;3.908;2022-07-23T15:01:50;34.40;99.90
51091;DHT22;37136;43.614;3.908;2022-07-23T15:04:17;34.40;99.90
51091;DHT22;37136;43.614;3.908;2022-07-23T15:06:43;34.90;99.90
51091;DHT22;37136;43.614;3.908;2022-07-23T15:09:10;38.50;99.90
51091;DHT22;37136;43.614;3.908;2022-07-23T15:11:35;39.90;99.90
51091;DHT22;37136;43.614;3.908;2022-07-23T15:14:06;40.50;99.90
51091;DHT22;37136;43.614;3.908;2022-07-23T15:16:34;40.70;99.90
51091;DHT22;37136;43.614;3.908;2022-07-23T15:19:00;40.80;99.90
51091;DHT22;37136;43.614;3.908;2022-07-23T15:21:27;40.80;99.90
51091;DHT22;37136;43.614;3.908;2022-07-23T15:23:55;41.80;99.90
51091;DHT22;37136;43.614;3.908;2022-07-23T15:26:25;42.10;99.90
51091;DHT22;37136;43.614;3.908;2022-07-23T15:28:51;42.20;99.90
51091;DHT22;37136;43.614;3.908;2022-07-23T15:31:17;41.80;99.90
51091;DHT22;37136;43.614;3.908;2022-07-23T15:33:43;43.30;99.90
51091;DHT22;37136;43.614;3.908;2022-07-23T15:36:09;43.10;99.90
51091;DHT22;37136;43.614;3.908;2022-07-23T15:38:35;43.50;99.90
51091;DHT22;37136;43.614;3.908;2022-07-23T15:41:01;42.80;99.90
51091;DHT22;37136;43.614;3.908;2022-07-23T15:43:27;43.30;99.90
51091;DHT22;37136;43.614;3.908;2022-07-23T15:45:53;43.10;99.90
51091;DHT22;37136;43.614;3.908;2022-07-23T15:48:20;43.20;99.90
51091;DHT22;37136;43.614;3.908;2022-07-23T15:50:46;44.10;99.90
51091;DHT22;37136;43.614;3.908;2022-07-23T15:53:12;43.10;99.90
51091;DHT22;37136;43.614;3.908;2022-07-23T15:55:38;43.20;99.90
51091;DHT22;37136;43.614;3.908;2022-07-23T15:58:05;43.00;99.90
51091;DHT22;37136;43.614;3.908;2022-07-23T16:00:31;43.30;99.90
51091;DHT22;37136;43.614;3.908;2022-07-23T16:02:57;44.00;99.90
51091;DHT22;37136;43.614;3.908;2022-07-23T16:05:23;45.00;99.90
51091;DHT22;37136;43.614;3.908;2022-07-23T16:07:49;44.70;99.90
51091;DHT22;37136;43.614;3.908;2022-07-23T16:10:15;45.50;99.90
51091;DHT22;37136;43.614;3.908;2022-07-23T16:12:40;45.00;99.90
51091;DHT22;37136;43.614;3.908;2022-07-23T16:15:06;44.90;99.90